White Mountain, AK

3:48 AM AKDT on September 02, 2014 (GMT -0800)
White Mountain | Change Station
CLOSE
Current Station
Airport
Location: White Mountain,
Elevation: 266 ft
Nearby Weather Stations

Elev 266 ft 64.69 °N, 163.41 °W | Updated 50 minutes ago

Clear
Clear
61 °F
Feels Like 61 °F
N
7
Wind Variable Wind from North

Today
High -- | Low -- °F
--% Chance of Precip.
Yesterday
High -- | Low -- °F
Precip. -- in
7:36 AM 10:06 PM
Waxing Crescent, 50% visible
Pressure 29.87 in
Visibility 10.0 miles
Clouds Clear
Dew Point 56 °F
Humidity 83%
Rainfall 0.00 in
Snow Depth Not available.
UV 0 out of 12
Pollen Not available.
Air Quality Not available.
Flu Activity Not available.
METAR PAWM 021058Z AUTO 35006KT 10SM CLR 16/13 A2984 RMK AO2 SLP115 T01610133

More Conditions Fewer Conditions

Pressure 29.87 in
Visibility 10.0 miles
Clouds Clear
Dew Point 56 °F
Humidity 83%
Rainfall 0.00 in
Snow Depth Not available.
UV 0 out of 12
Pollen Not available.
Air Quality Not available.
Flu Activity Not available.
METAR PAWM 021058Z AUTO 35006KT 10SM CLR 16/13 A2984 RMK AO2 SLP115 T01610133

More Conditions Fewer Conditions

10-Day Weather Forecast

Almanac

Astronomy

Sep. 02, 2014 Rise Set
Actual Time 7:36 AM AKDT 10:06 PM AKDT
Civil Twilight 6:41 AM AKDT 11:00 PM AKDT
Nautical Twilight 5:25 AM AKDT 12:15 AM AKDT
Astronomical Twilight 3:25 AM AKDT 2:20 AM AKDT
Moon 6:20 PM AKDT No Moon Set
Length of Visible Light 16h 18m
Length of Day
14h 29m
Tomorrow will be 6m 44s shorter.
Waxing Crescent, 50% of the Moon is Illuminated
Today
Waxing Crescent
Sep 8
Full
Sep 15
Last Quarter
Sep 24
New
Oct 1
First Quarter

Today's Extremes

State Highs State Lows

Community

WunderPhotos

Upload Photos

1,749,621 photos uploaded!

WunderBlogs® & News

By Dr. Jeff Masters
Director of Meteorology, Weather Underground
By Kari Strenfel
Meteorologist, Weather Underground
By Christopher C. Burt
Weather Historian, Weather Underground
September 2, 2014
September 2, 2014
September 2, 2014

Nearby

Snow Depth

Station Depth Elevation
Rocky Point 4 in 500 ft
Gobblers Knob 0 in 2030 ft
Coldfoot 1 in 1040 ft
Atigun Pass 9 in 4800 ft
Susitna Valley High 2 in 375 ft

Earthquake Activity

City Distance Mag. Time & Date
No recent earthquake activity has been reported nearby.
Minimum magnitude displayed is 2.5.

Coastal Water Temperatures

Place Temperature
No Stations Reporting

Nearby Weather Stations